Etusivu
METAR-TAF:

METAR-TAF

Lentoasemat :

George, Etelä-Afrikka

Leveyspiiri: 34-00S, Pituuspiiri: 022-23E, korkeus merenpinnasta: 193 m

Tämänhetkinen sää

Tämä raportti tehtiin 1 tunti ja 0 minuuttia sitten, kello 05.00 UTC
Tuuli 7 kn lännestä
Lämpötila 19°C
Kosteus 78%
Ilmanpaine 1013 hPa
Näkyvyys 10 km tai enemmän
Hajanaisia pilviä 3500 ft:n korkeudessa

METAR: FAGG 190500Z 27007KT 9999 SCT035 19/15 Q1013

Aika: 08:00 (06:00 UTC)

Sääennuste

Tämä raportti tehtiin 2 tuntia ja 0 minuuttia sitten, kello 04.00 UTC
Ennuste voimassa 19. päivästä klo 06 UTC - 20. päivään klo 06 UTC
Tuuli 5 kn lännestä
Näkyvyys 10 km tai enemmän
Hajanaisia pilviä 3000 ft:n korkeudessa
Tulossa
19. päivästä klo 08 UTC - 19. päivään klo 10 UTC
Tuuli 13 kn etelästä/lounaasta
Tulossa
19. päivästä klo 17 UTC - 19. päivään klo 19 UTC
Tuuli 10 kn lännestä

TAF: FAGG 190400Z 1906/2006 27005KT 9999 SCT030 BECMG 1908/1910 20013KT BECMG 1917/1919 28010KT TX23/1912Z TN18/2004Z

Säähavainnot ja -ennusteet yli 4000 lentoasemalta (METAR- ja TAF-raportit).

Käytössä olevat sääasemat on merkitty karttaan keltaisilla ja punaisilla pisteillä.

Aseta hiiri pisteen päälle nähdäksesi sääaseman nimen.

Klikkaa sitten nähdäksesi säähavainnot ja -ennusteet.

Kartan vaihtaminen: klikkaa mustalla rastilla varustettuja vihreitä pisteitä, niin voit zoomata sisään; viivalla varustettua vihreää pistettä, niin voit zoomata ulos tai vihreitä nuolia, niin pääset viereisille kartoille.


METAR-TAF: